Time;durP1;ratioP1;P1;durP2;ratioP2;P2;SDS_P1;SDS_P2;PMS_P1;PMS_P2;Temp;Humidity;BMP_temperature;BMP_pressure;BME280_temperature;BME280_humidity;BME280_pressure;Samples;Min_cycle;Max_cycle;Signal;HPM_P1;HPM_P2
2023/06/22 00:01:32;;;;;;;15.55;13.48;;;24.60;99.30;;;;;;5017480;28;20037;-50
2023/06/22 00:04:18;;;;;;;17.08;15.40;;;24.50;99.70;;;;;;5019150;28;20037;-52
2023/06/22 00:07:04;;;;;;;16.27;14.60;;;24.50;99.70;;;;;;5018388;28;20030;-52
2023/06/22 00:09:49;;;;;;;15.15;13.75;;;24.60;99.80;;;;;;5015205;28;20106;-50
2023/06/22 00:12:35;;;;;;;13.93;12.63;;;24.60;99.90;;;;;;5014799;28;20499;-51
2023/06/22 00:15:21;;;;;;;14.38;13.07;;;24.80;99.90;;;;;;5014765;28;20026;-52
2023/06/22 00:18:09;;;;;;;17.30;15.70;;;24.90;99.70;;;;;;5015383;28;20045;-50
2023/06/22 00:20:58;;;;;;;17.02;15.63;;;25.00;99.30;;;;;;5014552;28;20077;-51
2023/06/22 00:23:44;;;;;;;16.88;15.27;;;24.90;99.50;;;;;;5013677;28;20034;-51
2023/06/22 00:26:30;;;;;;;15.57;14.27;;;24.80;99.80;;;;;;5027981;28;20041;-51
2023/06/22 00:29:16;;;;;;;15.13;13.63;;;24.80;99.90;;;;;;5033867;28;20065;-51
2023/06/22 00:32:03;;;;;;;15.20;13.80;;;24.80;99.90;;;;;;5033360;28;20416;-52
2023/06/22 00:34:50;;;;;;;14.43;13.23;;;24.80;99.90;;;;;;5031376;28;20120;-53
2023/06/22 00:37:36;;;;;;;15.05;13.73;;;24.80;99.90;;;;;;5016031;28;20120;-55
2023/06/22 00:40:22;;;;;;;15.48;14.00;;;24.80;99.90;;;;;;5017184;28;20029;-54
2023/06/22 00:43:08;;;;;;;14.85;13.48;;;24.70;99.90;;;;;;5016481;28;20443;-56
2023/06/22 00:45:56;;;;;;;14.80;13.60;;;24.60;99.90;;;;;;5025697;28;20112;-49
2023/06/22 00:48:43;;;;;;;15.73;14.20;;;24.70;99.90;;;;;;5032106;28;20041;-50
2023/06/22 00:51:29;;;;;;;14.68;13.30;;;24.70;99.90;;;;;;5033310;28;20088;-52
2023/06/22 00:54:15;;;;;;;15.77;14.27;;;24.70;99.90;;;;;;5031315;28;20101;-54
2023/06/22 00:57:01;;;;;;;14.48;13.25;;;24.70;99.90;;;;;;5014399;28;20037;-54
2023/06/22 00:59:48;;;;;;;14.43;13.13;;;24.70;99.90;;;;;;5017073;28;20505;-52
2023/06/22 01:02:34;;;;;;;16.33;14.85;;;24.60;99.90;;;;;;5034048;28;20021;-53
2023/06/22 01:05:22;;;;;;;15.68;14.25;;;24.60;99.90;;;;;;5038058;28;20025;-54
2023/06/22 01:08:25;;;;;;;15.88;14.50;;;24.60;99.90;;;;;;5028297;28;20084;-53
2023/06/22 01:11:17;;;;;;;16.15;14.63;;;24.60;99.90;;;;;;5030390;28;20032;-52
2023/06/22 01:14:19;;;;;;;17.20;15.38;;;24.60;99.90;;;;;;5017478;28;20057;-55
2023/06/22 01:17:07;;;;;;;18.65;16.90;;;24.50;99.90;;;;;;5031055;28;20022;-53
2023/06/22 01:19:58;;;;;;;16.17;14.70;;;24.30;99.90;;;;;;5033410;28;20037;-52
2023/06/22 01:23:05;;;;;;;16.13;14.43;;;24.30;99.90;;;;;;5032677;28;20025;-52
2023/06/22 01:26:18;;;;;;;15.07;13.57;;;24.30;99.90;;;;;;5027898;28;20033;-54
2023/06/22 01:29:07;;;;;;;15.80;14.30;;;24.30;99.90;;;;;;5033383;28;20053;-52
2023/06/22 01:31:55;;;;;;;16.02;14.52;;;24.30;99.90;;;;;;5029544;28;20113;-52
2023/06/22 01:34:42;;;;;;;17.52;15.95;;;24.30;99.90;;;;;;5013713;28;20072;-52
2023/06/22 01:37:29;;;;;;;16.20;14.68;;;24.30;99.90;;;;;;5013501;28;20023;-51
2023/06/22 01:40:16;;;;;;;16.88;15.18;;;24.30;99.90;;;;;;5016063;28;20022;-52
2023/06/22 01:43:03;;;;;;;16.20;14.68;;;24.20;99.90;;;;;;5021974;28;20041;-55
2023/06/22 01:45:50;;;;;;;16.77;15.00;;;24.20;99.90;;;;;;5036692;28;20030;-56
2023/06/22 01:48:36;;;;;;;16.98;15.48;;;24.30;99.90;;;;;;5014652;28;20065;-54
2023/06/22 01:51:22;;;;;;;17.70;16.00;;;24.30;99.90;;;;;;5013171;28;20022;-56
2023/06/22 01:54:08;;;;;;;17.75;16.10;;;24.30;99.90;;;;;;5012435;28;20495;-53
2023/06/22 01:56:54;;;;;;;18.25;16.73;;;24.20;99.90;;;;;;5023669;28;20088;-55
2023/06/22 01:59:59;;;;;;;17.42;15.68;;;24.10;99.90;;;;;;5014768;28;20034;-56
2023/06/22 02:02:56;;;;;;;16.15;14.73;;;24.10;99.90;;;;;;5013415;28;20024;-55
2023/06/22 02:06:07;;;;;;;17.38;15.88;;;24.10;99.90;;;;;;5012678;28;20033;-54
2023/06/22 02:09:00;;;;;;;17.05;15.55;;;24.10;99.90;;;;;;5014406;28;20018;-54
2023/06/22 02:11:48;;;;;;;16.98;15.48;;;24.10;99.90;;;;;;5019701;28;20065;-55
2023/06/22 02:14:35;;;;;;;18.42;16.58;;;24.10;99.90;;;;;;5033499;28;20030;-53
2023/06/22 02:17:21;;;;;;;17.52;15.88;;;24.10;99.90;;;;;;5031398;28;20061;-55
2023/06/22 02:20:15;;;;;;;17.15;15.48;;;24.00;99.90;;;;;;5033607;28;20037;-54
2023/06/22 02:23:01;;;;;;;18.05;16.50;;;23.90;99.90;;;;;;5031606;28;20030;-55
2023/06/22 02:25:46;;;;;;;20.60;18.67;;;23.80;99.90;;;;;;5014808;28;20064;-55
2023/06/22 02:28:32;;;;;;;18.15;16.45;;;23.70;99.90;;;;;;5031146;28;20425;-52
2023/06/22 02:31:20;;;;;;;19.70;17.77;;;23.70;99.90;;;;;;5026591;28;20554;-53
2023/06/22 02:34:06;;;;;;;19.52;17.83;;;23.60;99.90;;;;;;5012672;28;20029;-54
2023/06/22 02:36:52;;;;;;;16.25;14.95;;;23.60;99.90;;;;;;5012996;28;20026;-53
2023/06/22 02:39:38;;;;;;;18.63;16.92;;;23.70;99.90;;;;;;5013423;28;20032;-53
2023/06/22 02:42:23;;;;;;;19.35;17.40;;;23.80;99.90;;;;;;5017079;28;20032;-51
2023/06/22 02:45:10;;;;;;;18.15;16.38;;;23.90;99.90;;;;;;5024015;28;20030;-53
2023/06/22 02:47:56;;;;;;;17.52;15.93;;;24.00;99.90;;;;;;5038148;28;20049;-55
2023/06/22 02:50:42;;;;;;;19.60;17.83;;;24.10;99.90;;;;;;5034408;28;20029;-56
2023/06/22 02:53:28;;;;;;;18.48;16.77;;;24.10;99.90;;;;;;5031289;28;20406;-49
2023/06/22 02:56:14;;;;;;;18.92;17.15;;;24.30;99.90;;;;;;5030945;28;20037;-54
2023/06/22 02:59:02;;;;;;;18.92;17.15;;;24.30;99.90;;;;;;5015001;28;20060;-54
2023/06/22 03:01:49;;;;;;;20.88;18.90;;;24.20;99.90;;;;;;5013371;28;20038;-55
2023/06/22 03:04:36;;;;;;;19.95;18.05;;;24.30;99.90;;;;;;5014982;28;20034;-51
2023/06/22 03:07:22;;;;;;;18.50;16.75;;;24.30;99.90;;;;;;5029115;28;20498;-51
2023/06/22 03:10:11;;;;;;;17.77;16.17;;;24.20;99.90;;;;;;5019816;28;20095;-56
2023/06/22 03:12:57;;;;;;;21.27;19.25;;;24.30;99.90;;;;;;5029785;28;20088;-54
2023/06/22 03:15:42;;;;;;;19.50;17.70;;;24.20;99.90;;;;;;5032717;28;20029;-53
2023/06/22 03:18:28;;;;;;;18.15;16.50;;;24.20;99.90;;;;;;5029268;28;20057;-53
2023/06/22 03:21:15;;;;;;;17.50;15.93;;;24.20;99.90;;;;;;5029856;28;20033;-56
2023/06/22 03:24:01;;;;;;;19.30;17.45;;;24.40;99.90;;;;;;5028949;28;20037;-57
2023/06/22 03:26:47;;;;;;;17.00;15.45;;;24.40;99.90;;;;;;5030839;28;20029;-52
2023/06/22 03:29:34;;;;;;;20.33;18.42;;;24.40;99.90;;;;;;5032916;28;20100;-53
2023/06/22 03:32:19;;;;;;;19.33;17.42;;;24.40;99.80;;;;;;5031757;28;20448;-54
2023/06/22 03:35:06;;;;;;;18.30;16.60;;;24.20;99.90;;;;;;5018296;28;20072;-56
2023/06/22 03:37:52;;;;;;;16.60;14.90;;;24.10;99.90;;;;;;5026295;28;20025;-55
2023/06/22 03:40:38;;;;;;;18.05;16.27;;;24.10;99.90;;;;;;5038517;28;20056;-55
2023/06/22 03:43:24;;;;;;;16.95;15.38;;;24.10;99.90;;;;;;5018426;28;20033;-53
2023/06/22 03:46:10;;;;;;;16.48;14.95;;;24.10;99.90;;;;;;5016839;28;20109;-52
2023/06/22 03:48:56;;;;;;;15.70;14.30;;;24.10;99.90;;;;;;5027451;28;20034;-54
2023/06/22 03:51:42;;;;;;;17.92;16.10;;;24.10;99.90;;;;;;5018892;28;20034;-52
2023/06/22 03:54:31;;;;;;;16.15;14.57;;;24.10;99.90;;;;;;5033960;28;20029;-54
2023/06/22 03:57:17;;;;;;;16.30;14.65;;;24.10;99.90;;;;;;5029673;28;20084;-54
2023/06/22 04:00:06;;;;;;;15.60;14.00;;;24.20;99.90;;;;;;5021202;28;20098;-56
2023/06/22 04:02:52;;;;;;;16.35;14.88;;;24.30;99.90;;;;;;5030308;28;20719;-55
2023/06/22 04:05:39;;;;;;;16.90;15.27;;;24.40;99.90;;;;;;5033007;28;20039;-54
2023/06/22 04:08:25;;;;;;;14.82;13.40;;;24.40;99.90;;;;;;5021037;28;20042;-54
2023/06/22 04:11:11;;;;;;;15.95;14.55;;;24.40;99.90;;;;;;5017524;28;20107;-57
2023/06/22 04:13:57;;;;;;;16.27;14.63;;;24.40;99.90;;;;;;5015756;28;20065;-55
2023/06/22 04:16:42;;;;;;;15.63;14.05;;;24.50;99.90;;;;;;5015630;28;20030;-54
2023/06/22 04:19:28;;;;;;;15.15;13.63;;;24.50;99.90;;;;;;5014287;28;20041;-54
2023/06/22 04:22:14;;;;;;;14.82;13.45;;;24.60;99.90;;;;;;5017854;28;20116;-51
2023/06/22 04:25:00;;;;;;;16.02;14.52;;;24.60;99.90;;;;;;5015633;28;20036;-51
2023/06/22 04:27:46;;;;;;;17.17;15.57;;;24.70;99.90;;;;;;5015843;28;20072;-54
2023/06/22 04:30:33;;;;;;;14.23;13.02;;;24.70;99.90;;;;;;5024117;28;20112;-52
2023/06/22 04:33:19;;;;;;;14.93;13.30;;;24.80;99.90;;;;;;5036239;28;20028;-51
2023/06/22 04:36:04;;;;;;;15.43;14.02;;;24.80;99.90;;;;;;5027292;28;20034;-50
2023/06/22 04:38:52;;;;;;;14.00;12.80;;;24.80;99.90;;;;;;5024801;28;20033;-54
2023/06/22 04:41:42;;;;;;;15.20;13.63;;;24.90;99.90;;;;;;5015192;28;20022;-52
2023/06/22 04:44:28;;;;;;;15.27;13.70;;;24.90;99.90;;;;;;5016586;28;20017;-50
2023/06/22 04:47:14;;;;;;;14.50;13.20;;;25.00;99.90;;;;;;5014482;28;20033;-51
2023/06/22 04:50:01;;;;;;;15.38;13.77;;;25.00;99.30;;;;;;5014691;28;20557;-53
2023/06/22 04:52:48;;;;;;;15.70;14.10;;;25.00;99.10;;;;;;5014389;28;20045;-51
2023/06/22 04:55:34;;;;;;;17.65;13.57;;;25.00;98.90;;;;;;5014041;28;20812;-53
2023/06/22 04:58:21;;;;;;;14.20;12.88;;;25.00;98.90;;;;;;5016688;28;20648;-56
2023/06/22 05:01:08;;;;;;;15.23;13.63;;;25.00;98.80;;;;;;5024208;28;20076;-53
2023/06/22 05:03:58;;;;;;;14.65;13.10;;;25.10;98.70;;;;;;5024650;28;20034;-55
2023/06/22 05:06:45;;;;;;;16.45;14.75;;;25.00;98.70;;;;;;5030962;28;20041;-55
2023/06/22 05:09:31;;;;;;;16.55;15.05;;;25.00;98.70;;;;;;5019305;28;20052;-54
2023/06/22 05:12:17;;;;;;;19.25;16.38;;;24.90;98.80;;;;;;5020536;28;20451;-53
2023/06/22 05:15:03;;;;;;;18.98;17.10;;;24.90;98.90;;;;;;5020096;28;20026;-52
2023/06/22 05:17:49;;;;;;;18.55;16.52;;;24.80;98.80;;;;;;5033920;28;20120;-52
2023/06/22 05:20:36;;;;;;;25.27;19.75;;;24.60;99.00;;;;;;5032815;28;20034;-54
2023/06/22 05:23:22;;;;;;;20.02;18.02;;;24.60;99.20;;;;;;5032886;28;20163;-56
2023/06/22 05:26:10;;;;;;;20.08;18.17;;;24.40;99.30;;;;;;5032580;28;20452;-54
2023/06/22 05:28:56;;;;;;;19.20;17.30;;;24.40;99.80;;;;;;5033871;28;20041;-57
2023/06/22 05:31:42;;;;;;;20.58;17.63;;;24.40;99.90;;;;;;5032750;28;20033;-56
2023/06/22 05:34:28;;;;;;;21.30;19.05;;;24.40;99.90;;;;;;5027532;28;20034;-53
2023/06/22 05:37:14;;;;;;;21.90;17.23;;;24.40;99.90;;;;;;5015327;28;20101;-56
2023/06/22 05:40:00;;;;;;;19.20;17.40;;;24.40;99.90;;;;;;5021520;28;20026;-55
2023/06/22 05:42:45;;;;;;;26.30;23.48;;;24.60;99.90;;;;;;5014966;28;20033;-56
2023/06/22 05:45:31;;;;;;;24.40;21.77;;;24.70;99.90;;;;;;5016010;28;20081;-56
2023/06/22 05:48:17;;;;;;;20.92;18.63;;;24.70;99.90;;;;;;5015755;28;20052;-62
2023/06/22 05:51:03;;;;;;;24.75;21.02;;;24.70;99.90;;;;;;5014015;28;20494;-57
2023/06/22 05:53:50;;;;;;;26.88;22.67;;;24.80;99.90;;;;;;5013470;28;20034;-54
2023/06/22 05:56:36;;;;;;;28.55;23.42;;;24.70;99.90;;;;;;5013759;28;20072;-56
2023/06/22 05:59:22;;;;;;;35.20;22.63;;;24.50;99.90;;;;;;5014211;28;20445;-56
2023/06/22 06:02:08;;;;;;;28.25;21.05;;;24.50;99.90;;;;;;5013094;28;20564;-53
2023/06/22 06:04:54;;;;;;;40.88;21.90;;;24.50;99.90;;;;;;5014410;28;20044;-57
2023/06/22 06:07:40;;;;;;;72.03;26.65;;;24.50;99.90;;;;;;5012425;28;20033;-52
2023/06/22 06:10:27;;;;;;;69.32;24.63;;;24.60;99.90;;;;;;5013178;28;20077;-52
2023/06/22 06:13:13;;;;;;;29.17;18.88;;;24.80;99.90;;;;;;5012951;28;20406;-56
2023/06/22 06:15:59;;;;;;;142.18;33.63;;;24.80;99.80;;;;;;5020580;28;20033;-56
2023/06/22 06:18:45;;;;;;;78.78;23.92;;;24.80;99.80;;;;;;5029547;28;20065;-54
2023/06/22 06:21:31;;;;;;;68.20;23.45;;;25.00;99.80;;;;;;5018737;28;20018;-54
2023/06/22 06:24:17;;;;;;;48.72;25.00;;;25.00;99.60;;;;;;5014379;28;20066;-53
2023/06/22 06:27:04;;;;;;;46.22;21.77;;;25.10;99.50;;;;;;5013139;28;20415;-53
2023/06/22 06:29:50;;;;;;;38.83;19.77;;;25.10;99.40;;;;;;5012384;28;20033;-53
2023/06/22 06:32:36;;;;;;;48.72;20.58;;;25.10;99.40;;;;;;5012952;28;20025;-55
2023/06/22 06:35:22;;;;;;;23.73;16.52;;;25.20;99.40;;;;;;5015061;28;20052;-55
2023/06/22 06:38:08;;;;;;;41.38;18.00;;;25.20;99.20;;;;;;5014809;28;20410;-53
2023/06/22 06:40:54;;;;;;;29.90;18.85;;;25.20;99.10;;;;;;5013326;28;20061;-51
2023/06/22 06:43:42;;;;;;;21.88;15.82;;;25.30;99.00;;;;;;5013995;28;20037;-53
2023/06/22 06:46:28;;;;;;;25.80;15.93;;;25.40;98.90;;;;;;5012092;28;20033;-53
2023/06/22 06:49:14;;;;;;;49.20;33.05;;;25.50;98.80;;;;;;5013184;28;20030;-55
2023/06/22 06:52:00;;;;;;;110.25;34.58;;;25.60;98.70;;;;;;5012757;28;20069;-55
2023/06/22 06:54:45;;;;;;;55.85;20.52;;;25.80;98.60;;;;;;5012611;28;20030;-54
2023/06/22 06:57:32;;;;;;;50.72;21.85;;;25.80;98.50;;;;;;5012538;28;20528;-55
2023/06/22 07:00:18;;;;;;;52.45;23.63;;;25.90;98.10;;;;;;5012968;28;20110;-51
2023/06/22 07:03:05;;;;;;;45.22;25.52;;;25.90;98.00;;;;;;5011913;28;20100;-53
2023/06/22 07:05:51;;;;;;;71.07;28.70;;;26.00;97.90;;;;;;5011867;28;20030;-55
2023/06/22 07:08:37;;;;;;;49.65;22.40;;;26.10;97.90;;;;;;5012895;28;20034;-51
2023/06/22 07:11:23;;;;;;;29.55;16.88;;;26.20;97.80;;;;;;5011470;28;20042;-51
2023/06/22 07:14:08;;;;;;;22.92;15.70;;;26.30;97.70;;;;;;5012776;28;20513;-50
2023/06/22 07:16:54;;;;;;;38.95;24.95;;;26.30;97.60;;;;;;5012913;28;20507;-53
2023/06/22 07:19:42;;;;;;;20.00;16.85;;;26.40;97.30;;;;;;5016697;28;20603;-52
2023/06/22 07:22:27;;;;;;;73.15;25.27;;;26.60;97.00;;;;;;5029940;28;20037;-52
2023/06/22 07:25:17;;;;;;;67.63;23.40;;;26.70;96.60;;;;;;5016340;28;20506;-53
2023/06/22 07:28:05;;;;;;;32.95;16.60;;;26.70;96.40;;;;;;5014880;28;20117;-53
2023/06/22 07:30:51;;;;;;;69.65;24.17;;;26.80;96.30;;;;;;5034034;28;20028;-51
2023/06/22 07:33:37;;;;;;;68.05;22.75;;;26.80;96.10;;;;;;5034397;28;20579;-53
2023/06/22 07:36:23;;;;;;;35.10;18.67;;;26.80;96.00;;;;;;5035010;28;20072;-54
2023/06/22 07:39:08;;;;;;;42.35;19.38;;;26.80;95.90;;;;;;5017176;28;20034;-52
2023/06/22 07:41:54;;;;;;;133.52;34.22;;;27.00;96.00;;;;;;5016411;28;20029;-52
2023/06/22 07:44:40;;;;;;;55.53;21.83;;;27.10;95.70;;;;;;5016593;28;20037;-55
2023/06/22 07:47:28;;;;;;;42.95;18.08;;;27.20;95.70;;;;;;5015978;28;20026;-53
2023/06/22 07:50:14;;;;;;;49.67;20.35;;;27.30;95.40;;;;;;5015257;28;20026;-52
2023/06/22 07:52:59;;;;;;;27.42;16.40;;;27.30;95.30;;;;;;5017227;28;20101;-51
2023/06/22 07:55:45;;;;;;;40.38;17.27;;;27.30;95.30;;;;;;5038155;28;20026;-53
2023/06/22 07:58:31;;;;;;;78.07;20.90;;;27.30;95.30;;;;;;5029835;28;20080;-53
2023/06/22 08:01:19;;;;;;;38.17;17.85;;;27.40;94.90;;;;;;5033118;28;20060;-51
2023/06/22 08:04:05;;;;;;;15.90;14.15;;;27.50;94.60;;;;;;5034514;28;20108;-52
2023/06/22 08:06:51;;;;;;;15.77;14.02;;;27.60;94.30;;;;;;5030838;28;20026;-51
2023/06/22 08:09:37;;;;;;;42.53;21.23;;;27.70;94.20;;;;;;5016130;28;20091;-52
2023/06/22 08:12:23;;;;;;;26.10;16.92;;;27.90;94.00;;;;;;5016417;28;20037;-50
2023/06/22 08:15:09;;;;;;;28.08;16.42;;;28.00;94.00;;;;;;5029866;28;20017;-51
2023/06/22 08:17:55;;;;;;;16.85;14.40;;;28.10;93.90;;;;;;5033805;28;20029;-49
2023/06/22 08:20:41;;;;;;;19.48;16.25;;;28.20;94.00;;;;;;5035889;28;20369;-50
2023/06/22 08:23:27;;;;;;;15.35;13.98;;;28.30;93.70;;;;;;5035441;28;20037;-51
2023/06/22 08:26:14;;;;;;;16.50;14.90;;;28.30;93.60;;;;;;5018230;28;20022;-50
2023/06/22 08:29:00;;;;;;;18.45;15.38;;;28.30;93.20;;;;;;5015627;28;20038;-53
2023/06/22 08:31:47;;;;;;;21.60;17.65;;;28.40;93.20;;;;;;5027069;28;20094;-52
2023/06/22 08:34:33;;;;;;;20.67;16.90;;;28.50;93.30;;;;;;5030348;28;20022;-54
2023/06/22 08:37:19;;;;;;;21.45;16.33;;;28.50;93.20;;;;;;5015876;28;20053;-53
2023/06/22 08:40:09;;;;;;;17.02;15.55;;;28.50;93.20;;;;;;5018433;28;20032;-50
2023/06/22 08:42:55;;;;;;;21.98;16.15;;;28.60;93.00;;;;;;5019102;28;20028;-54
2023/06/22 08:45:41;;;;;;;17.95;14.23;;;28.50;93.10;;;;;;5014951;28;20065;-51
2023/06/22 08:48:26;;;;;;;19.15;15.02;;;28.50;93.30;;;;;;5013811;28;20508;-53
2023/06/22 08:51:13;;;;;;;23.48;14.80;;;28.50;93.40;;;;;;5021349;28;20394;-55
2023/06/22 08:53:59;;;;;;;22.02;15.32;;;28.50;93.30;;;;;;5035015;28;20061;-49
2023/06/22 08:56:45;;;;;;;27.58;16.33;;;28.70;93.10;;;;;;5022516;28;20036;-53
2023/06/22 08:59:31;;;;;;;16.30;13.52;;;28.60;92.70;;;;;;5013403;28;20529;-52
2023/06/22 09:02:17;;;;;;;15.48;14.02;;;28.60;92.40;;;;;;5014724;28;20034;-51
2023/06/22 09:05:04;;;;;;;16.02;14.35;;;28.80;92.80;;;;;;5014632;28;20052;-56
2023/06/22 09:07:50;;;;;;;15.70;14.07;;;28.80;92.20;;;;;;5015507;28;20030;-51
2023/06/22 09:10:36;;;;;;;14.77;13.48;;;28.80;92.10;;;;;;5014679;28;20112;-51
2023/06/22 09:13:22;;;;;;;15.65;14.10;;;28.80;92.30;;;;;;5012780;28;20033;-51
2023/06/22 09:16:08;;;;;;;15.27;13.82;;;28.90;92.00;;;;;;5014817;28;20054;-53
2023/06/22 09:18:54;;;;;;;15.05;13.65;;;29.00;91.90;;;;;;5012795;28;20498;-54
2023/06/22 09:21:40;;;;;;;15.27;13.70;;;29.10;91.90;;;;;;5014483;28;20038;-51
2023/06/22 09:24:26;;;;;;;17.67;14.80;;;29.10;91.20;;;;;;5013031;28;20041;-53
2023/06/22 09:27:12;;;;;;;30.90;20.55;;;29.00;91.30;;;;;;5015005;28;20120;-51
2023/06/22 09:29:58;;;;;;;15.70;14.23;;;29.10;91.30;;;;;;5027991;28;20029;-55
2023/06/22 09:32:44;;;;;;;14.65;13.00;;;29.00;91.00;;;;;;5034276;28;20057;-50
2023/06/22 09:35:30;;;;;;;13.98;12.68;;;29.10;91.10;;;;;;5038434;28;20029;-52
2023/06/22 09:38:16;;;;;;;15.23;13.32;;;29.30;90.90;;;;;;5027166;28;20597;-51
2023/06/22 09:41:02;;;;;;;14.82;13.32;;;29.50;90.90;;;;;;5027631;28;20046;-52
2023/06/22 09:43:48;;;;;;;14.18;12.85;;;29.50;90.40;;;;;;5013852;28;20037;-49
2023/06/22 09:46:34;;;;;;;13.85;12.55;;;29.30;90.40;;;;;;5014177;28;20022;-53
2023/06/22 09:49:20;;;;;;;14.20;12.93;;;29.30;90.50;;;;;;5018198;28;20060;-49
2023/06/22 09:52:07;;;;;;;14.15;12.63;;;29.40;90.20;;;;;;5032794;28;20029;-51
2023/06/22 09:54:53;;;;;;;13.23;12.13;;;29.60;90.30;;;;;;5032796;28;20026;-50
2023/06/22 09:57:38;;;;;;;14.27;12.82;;;29.40;90.20;;;;;;5032461;28;20375;-53
2023/06/22 10:00:26;;;;;;;14.25;12.82;;;29.40;90.40;;;;;;5031932;28;20025;-55
2023/06/22 10:03:12;;;;;;;13.07;11.80;;;29.60;90.20;;;;;;5034643;28;20495;-52
2023/06/22 10:05:58;;;;;;;14.63;13.13;;;29.70;90.10;;;;;;5032701;28;20494;-53
2023/06/22 10:08:44;;;;;;;14.65;13.00;;;29.80;89.50;;;;;;5033387;28;20041;-52
2023/06/22 10:11:30;;;;;;;14.70;13.30;;;29.90;88.90;;;;;;5036501;28;20541;-53
2023/06/22 10:14:16;;;;;;;13.10;11.80;;;30.00;88.40;;;;;;5035327;28;20104;-53
2023/06/22 10:17:02;;;;;;;13.40;11.57;;;30.10;87.90;;;;;;5031217;28;20156;-53
2023/06/22 10:19:48;;;;;;;13.00;11.18;;;30.30;86.90;;;;;;5016609;28;20041;-51
2023/06/22 10:22:34;;;;;;;12.95;11.75;;;30.30;87.10;;;;;;5013013;28;20037;-50
2023/06/22 10:25:21;;;;;;;13.15;11.80;;;30.00;86.30;;;;;;5012760;28;20026;-53
2023/06/22 10:28:08;;;;;;;14.57;12.25;;;29.80;87.20;;;;;;5014603;28;20111;-53
2023/06/22 10:30:54;;;;;;;12.98;11.75;;;29.90;87.40;;;;;;5012679;28;20424;-51
2023/06/22 10:33:41;;;;;;;13.35;12.13;;;30.00;87.40;;;;;;5011269;28;20411;-53
2023/06/22 10:36:27;;;;;;;14.50;11.05;;;30.30;86.90;;;;;;5012309;28;20029;-54
2023/06/22 10:39:13;;;;;;;12.82;11.55;;;30.40;85.50;;;;;;5012605;28;20521;-50
2023/06/22 10:41:59;;;;;;;12.57;10.30;;;30.20;85.60;;;;;;5012830;28;20034;-52
2023/06/22 10:44:45;;;;;;;16.70;10.55;;;30.50;85.40;;;;;;5012621;28;20034;-55
2023/06/22 10:47:31;;;;;;;11.10;10.10;;;30.60;85.30;;;;;;5032268;28;20029;-53
2023/06/22 10:50:17;;;;;;;10.65;9.75;;;30.60;84.50;;;;;;5038161;28;20120;-51
2023/06/22 10:53:03;;;;;;;11.40;10.35;;;30.50;84.40;;;;;;5032737;28;20053;-53
2023/06/22 10:55:49;;;;;;;12.32;11.05;;;30.30;84.60;;;;;;5029560;28;20077;-54
2023/06/22 10:58:35;;;;;;;11.45;10.30;;;30.40;84.10;;;;;;5033204;28;20113;-55
2023/06/22 11:01:21;;;;;;;12.13;10.95;;;30.40;83.90;;;;;;5031800;28;20441;-54
2023/06/22 11:04:07;;;;;;;10.68;9.68;;;30.60;84.50;;;;;;5031209;28;20037;-51
2023/06/22 11:06:53;;;;;;;11.10;9.93;;;30.80;83.50;;;;;;5029818;28;20112;-51
2023/06/22 11:09:39;;;;;;;10.85;9.80;;;30.90;83.20;;;;;;5033117;28;20120;-51
2023/06/22 11:12:25;;;;;;;11.50;10.40;;;31.00;82.10;;;;;;5032552;28;20030;-54
2023/06/22 11:15:11;;;;;;;10.40;9.40;;;31.00;81.40;;;;;;5011576;28;20026;-54
2023/06/22 11:17:57;;;;;;;10.45;9.43;;;30.90;81.60;;;;;;5012688;28;20022;-51
2023/06/22 11:20:43;;;;;;;10.02;9.13;;;30.80;79.70;;;;;;5012914;28;20041;-54
2023/06/22 11:23:29;;;;;;;11.80;10.15;;;30.60;80.60;;;;;;5016195;28;20508;-51
2023/06/22 11:26:15;;;;;;;11.02;9.88;;;30.70;81.50;;;;;;5032843;28;20160;-51
2023/06/22 11:29:05;;;;;;;11.18;9.60;;;30.80;81.40;;;;;;5032199;28;20449;-49
2023/06/22 11:31:50;;;;;;;10.32;9.32;;;30.80;81.30;;;;;;5032040;28;20040;-54
2023/06/22 11:34:36;;;;;;;10.85;9.75;;;31.00;80.60;;;;;;5025075;28;20038;-54
2023/06/22 11:37:22;;;;;;;10.70;9.70;;;31.20;80.60;;;;;;5018917;28;20032;-50
2023/06/22 11:40:09;;;;;;;11.45;10.30;;;31.30;80.50;;;;;;5032395;28;20044;-55
2023/06/22 11:42:55;;;;;;;13.13;10.45;;;31.20;80.20;;;;;;5031500;28;20026;-54
2023/06/22 11:45:41;;;;;;;12.35;10.70;;;31.20;80.50;;;;;;5031137;28;20502;-54
2023/06/22 11:48:27;;;;;;;12.55;11.35;;;31.20;80.70;;;;;;5030489;28;20037;-52
2023/06/22 11:51:13;;;;;;;11.95;10.95;;;30.80;80.80;;;;;;5030957;28;20041;-54
2023/06/22 11:53:59;;;;;;;11.75;10.63;;;30.70;81.50;;;;;;5012187;28;20030;-55
2023/06/22 11:56:44;;;;;;;18.40;11.77;;;30.80;81.80;;;;;;5010827;28;20030;-54
2023/06/22 11:59:30;;;;;;;11.82;10.65;;;30.90;81.70;;;;;;5011932;28;20097;-53
2023/06/22 12:02:16;;;;;;;11.70;10.52;;;31.10;81.80;;;;;;5011967;28;20149;-57
2023/06/22 12:05:03;;;;;;;11.13;10.10;;;31.40;81.90;;;;;;5014961;28;20108;-56
2023/06/22 12:07:49;;;;;;;12.85;11.10;;;31.70;81.30;;;;;;5016642;28;20037;-53
2023/06/22 12:10:35;;;;;;;11.23;10.18;;;31.90;81.00;;;;;;5015668;28;20061;-57
2023/06/22 12:13:21;;;;;;;11.23;10.07;;;32.10;80.40;;;;;;5014480;28;20029;-56
2023/06/22 12:16:07;;;;;;;10.75;9.63;;;32.00;79.50;;;;;;5015055;28;20777;-57
2023/06/22 12:18:53;;;;;;;12.25;11.20;;;32.00;79.50;;;;;;5015566;28;20044;-55
2023/06/22 12:21:40;;;;;;;12.23;11.02;;;31.90;79.40;;;;;;5014142;28;20038;-53
2023/06/22 12:24:26;;;;;;;12.05;10.55;;;31.70;78.70;;;;;;5015634;28;20569;-55
2023/06/22 12:27:12;;;;;;;11.18;10.07;;;31.50;79.10;;;;;;5034840;28;20025;-53
2023/06/22 12:29:58;;;;;;;11.73;10.57;;;31.50;79.90;;;;;;5034737;28;20146;-55
2023/06/22 12:32:44;;;;;;;11.02;10.07;;;31.60;79.60;;;;;;5034414;28;20123;-52
2023/06/22 12:35:30;;;;;;;12.68;10.55;;;31.70;79.70;;;;;;5033341;28;20022;-55
2023/06/22 12:38:16;;;;;;;11.82;10.52;;;31.80;79.80;;;;;;5034312;28;20029;-54
2023/06/22 12:41:02;;;;;;;11.57;10.57;;;32.10;79.30;;;;;;5034186;28;20057;-58
2023/06/22 12:43:48;;;;;;;11.00;9.85;;;32.50;78.90;;;;;;5034164;28;20105;-53
2023/06/22 12:46:37;;;;;;;13.27;10.77;;;32.80;79.10;;;;;;5032831;28;20029;-55
2023/06/22 12:49:23;;;;;;;11.60;10.38;;;33.00;77.20;;;;;;5032369;28;20022;-54
2023/06/22 12:52:11;;;;;;;12.32;11.20;;;32.20;77.50;;;;;;5033461;28;20065;-53
2023/06/22 12:54:57;;;;;;;10.82;9.93;;;32.00;78.40;;;;;;5034181;28;20021;-55
2023/06/22 12:57:42;;;;;;;10.73;9.52;;;32.30;78.90;;;;;;5013618;28;20030;-55
2023/06/22 13:00:28;;;;;;;12.13;10.35;;;32.70;78.20;;;;;;5015464;28;20022;-54
2023/06/22 13:03:14;;;;;;;10.98;9.88;;;32.80;76.80;;;;;;5018717;28;20030;-56
2023/06/22 13:06:00;;;;;;;11.00;9.90;;;32.90;76.80;;;;;;5020522;28;20080;-54
2023/06/22 13:08:46;;;;;;;11.57;10.48;;;33.10;76.50;;;;;;5026994;28;20033;-55
2023/06/22 13:11:32;;;;;;;10.77;9.85;;;33.20;76.00;;;;;;5012373;28;20026;-54
2023/06/22 13:14:18;;;;;;;10.77;9.88;;;33.10;75.90;;;;;;5013508;28;20490;-56
2023/06/22 13:17:04;;;;;;;11.13;9.95;;;33.10;76.20;;;;;;5012225;28;20034;-56
2023/06/22 13:19:50;;;;;;;13.15;9.30;;;33.30;75.80;;;;;;5013983;28;20084;-56
2023/06/22 13:22:43;;;;;;;11.15;10.05;;;33.60;75.90;;;;;;5014013;28;20033;-54
2023/06/22 13:25:29;;;;;;;9.57;8.67;;;33.60;75.20;;;;;;5013709;28;20081;-55
2023/06/22 13:28:15;;;;;;;11.13;9.95;;;33.60;75.10;;;;;;5021404;28;20614;-54
2023/06/22 13:31:01;;;;;;;10.52;9.48;;;33.50;75.30;;;;;;5014016;28;20044;-53
2023/06/22 13:33:48;;;;;;;10.38;9.38;;;33.80;75.00;;;;;;5014048;28;20030;-54
2023/06/22 13:36:34;;;;;;;10.52;9.32;;;34.10;74.50;;;;;;5013172;28;20057;-53
2023/06/22 13:39:20;;;;;;;11.00;10.00;;;34.30;73.70;;;;;;5013840;28;20022;-59
2023/06/22 13:42:06;;;;;;;10.95;9.82;;;34.40;73.10;;;;;;5029520;28;20104;-54
2023/06/22 13:44:52;;;;;;;10.30;9.40;;;34.20;73.10;;;;;;5033045;28;20108;-54
2023/06/22 13:47:38;;;;;;;12.32;11.15;;;34.10;73.50;;;;;;5032885;28;20022;-55
2023/06/22 13:50:24;;;;;;;15.15;13.52;;;34.30;74.70;;;;;;5032190;28;20490;-55
2023/06/22 13:53:10;;;;;;;10.20;9.30;;;34.50;73.10;;;;;;5032401;28;20030;-52
2023/06/22 13:55:57;;;;;;;10.38;9.38;;;34.30;73.40;;;;;;5032763;28;20516;-54
2023/06/22 13:58:43;;;;;;;11.52;10.32;;;34.40;73.50;;;;;;5032552;28;20025;-55
2023/06/22 14:01:29;;;;;;;11.40;9.40;;;34.50;73.40;;;;;;5032186;28;20409;-56
2023/06/22 14:04:15;;;;;;;10.20;9.30;;;34.50;73.00;;;;;;5030172;28;20516;-56
2023/06/22 14:07:01;;;;;;;10.50;9.50;;;34.40;73.10;;;;;;5029640;28;20560;-55